Time;durP1;ratioP1;P1;durP2;ratioP2;P2;SDS_P1;SDS_P2;PMS_P1;PMS_P2;Temp;Humidity;BMP_temperature;BMP_pressure;BME280_temperature;BME280_humidity;BME280_pressure;Samples;Min_cycle;Max_cycle;Signal;HPM_P1;HPM_P2
2022/05/18 00:01:46;;;;;;;7.43;5.63;;;;;;;20.39;63.23;98854.56;5042393;28;20173;-88
2022/05/18 00:04:11;;;;;;;7.13;5.30;;;;;;;17.41;63.13;98337.06;5059979;28;20166;-89
2022/05/18 00:06:37;;;;;;;8.60;5.30;;;;;;;18.89;63.23;98587.09;5044231;28;20184;-90
2022/05/18 00:09:03;;;;;;;6.20;4.97;;;;;;;20.32;63.64;98829.75;5042904;28;20265;-89
2022/05/18 00:11:30;;;;;;;9.33;5.00;;;;;;;20.55;63.85;98888.78;5061792;28;20627;-90
2022/05/18 00:13:56;;;;;;;7.80;5.20;;;;;;;19.30;63.94;98687.91;5043676;28;20256;-91
2022/05/18 00:16:24;;;;;;;7.13;5.10;;;;;;;19.03;64.09;98615.28;5042878;28;20239;-90
2022/05/18 00:18:50;;;;;;;6.77;5.07;;;;;;;21.10;65.08;98989.75;5061484;28;20173;-90
2022/05/18 00:21:15;;;;;;;7.20;5.20;;;;;;;21.04;64.96;98967.44;5043099;28;20244;-88
2022/05/18 00:23:41;;;;;;;9.37;5.40;;;;;;;19.47;65.55;98743.50;5043845;28;20201;-91
2022/05/18 00:26:07;;;;;;;6.47;5.20;;;;;;;20.87;65.33;98981.28;5043992;28;20178;-90
2022/05/18 00:28:33;;;;;;;6.83;4.73;;;;;;;20.77;65.34;98943.56;5061234;28;20654;-91
2022/05/18 00:31:00;;;;;;;7.30;5.20;;;;;;;19.71;65.05;98741.72;5026426;28;20232;-89
2022/05/18 00:33:27;;;;;;;5.83;4.97;;;;;;;18.71;64.81;98602.50;5061307;28;20173;-90
2022/05/18 00:35:53;;;;;;;5.40;4.70;;;;;;;20.65;64.84;98903.31;5043414;28;20165;-90
2022/05/18 00:43:42;;;;;;;6.70;5.37;;;;;;;20.92;65.69;98952.09;6015793;22;20489;-90
2022/05/18 00:46:11;;;;;;;6.37;5.10;;;;;;;19.04;66.44;98687.09;5044759;28;20177;-90
2022/05/18 00:48:37;;;;;;;7.50;5.30;;;;;;;17.99;66.16;98486.34;5044648;28;20192;-90
2022/05/18 00:51:07;;;;;;;5.70;5.10;;;;;;;18.81;66.34;98629.84;5044169;28;20205;-90
2022/05/18 00:53:45;;;;;;;5.83;5.00;;;;;;;19.99;66.95;98829.84;5042799;28;20620;-90
2022/05/18 00:56:19;;;;;;;5.90;5.23;;;;;;;18.76;66.22;98618.75;5028734;28;20178;-90
2022/05/18 00:58:54;;;;;;;7.67;5.40;;;;;;;20.06;65.88;98817.81;5024784;28;20173;-91
2022/05/18 01:01:19;;;;;;;7.20;5.33;;;;;;;20.87;66.04;98968.41;5023072;28;20184;-90
2022/05/18 01:03:49;;;;;;;5.67;5.10;;;;;;;20.43;67.32;98909.41;5035368;28;20170;-90
2022/05/18 01:06:29;;;;;;;6.00;5.40;;;;;;;20.86;66.87;98948.66;5038498;28;20174;-89
2022/05/18 01:08:54;;;;;;;8.93;5.70;;;;;;;20.84;67.08;98948.69;5038147;28;20174;-91
2022/05/18 01:11:20;;;;;;;5.77;5.27;;;;;;;19.52;67.64;98757.19;5044147;28;20686;-90
2022/05/18 01:13:46;;;;;;;6.67;5.30;;;;;;;20.53;68.32;98929.94;5064194;28;20176;-91
2022/05/18 01:16:12;;;;;;;5.90;5.30;;;;;;;17.46;68.26;98447.94;5083067;28;20223;-90
2022/05/18 01:18:39;;;;;;;5.70;5.20;;;;;;;18.58;68.44;98637.56;5082593;28;20164;-90
2022/05/18 01:21:04;;;;;;;8.37;5.63;;;;;;;19.38;68.16;98741.81;5080405;28;20181;-92
2022/05/18 01:24:06;;;;;;;6.53;5.07;;;;;;;20.65;68.96;98941.91;5024526;28;20185;-92
2022/05/18 01:26:49;;;;;;;6.50;5.50;;;;;;;18.90;69.52;98675.97;4945264;29;20606;-90
2022/05/18 01:29:19;;;;;;;6.57;5.43;;;;;;;20.31;70.45;98917.16;4946050;29;20193;-92
2022/05/18 01:31:52;;;;;;;6.37;5.60;;;;;;;19.40;70.46;98758.91;4952629;28;20188;-90
2022/05/18 01:34:23;;;;;;;6.57;5.40;;;;;;;18.55;69.67;98596.53;4969447;28;20190;-91
2022/05/18 01:36:49;;;;;;;5.97;5.37;;;;;;;18.34;69.98;98575.16;4980404;28;20207;-92
2022/05/18 01:39:23;;;;;;;6.23;5.37;;;;;;;20.02;70.60;98860.69;4980635;28;20171;-92
2022/05/18 01:42:14;;;;;;;7.30;5.33;;;;;;;19.60;71.20;98805.09;4973314;28;20267;-91
2022/05/18 01:44:41;;;;;;;7.17;5.23;;;;;;;19.28;71.87;98770.91;4942550;29;20232;-92
2022/05/18 01:47:07;;;;;;;7.10;5.23;;;;;;;17.25;72.48;98427.41;4943556;29;20184;-91
2022/05/18 01:49:36;;;;;;;7.40;5.20;;;;;;;16.59;73.15;98345.47;4942913;29;20224;-92
2022/05/18 01:52:02;;;;;;;6.93;5.70;;;;;;;18.05;72.75;98568.31;4949821;28;20168;-91
2022/05/18 01:54:27;;;;;;;6.50;5.47;;;;;;;19.15;73.11;98757.22;4977977;28;20183;-92
2022/05/18 01:56:53;;;;;;;6.33;5.63;;;;;;;19.26;73.38;98776.03;4978008;28;20691;-92
2022/05/18 01:59:21;;;;;;;6.90;5.77;;;;;;;16.98;73.55;98417.13;4962204;28;20565;-92
2022/05/18 02:01:48;;;;;;;8.07;5.50;;;;;;;16.74;73.93;98377.03;4973167;28;20225;-92
2022/05/18 02:04:14;;;;;;;6.97;5.80;;;;;;;19.92;74.44;98884.66;5023388;28;20178;-92
2022/05/18 02:06:40;;;;;;;7.47;5.50;;;;;;;19.90;74.97;98902.66;5037314;23;20192;-91
2022/05/18 02:09:06;;;;;;;7.13;5.60;;;;;;;16.89;74.88;98382.16;5042517;28;20285;-89
2022/05/18 02:11:34;;;;;;;7.47;5.80;;;;;;;18.21;75.20;98605.06;5059652;28;20765;-92
2022/05/18 02:13:59;;;;;;;7.60;5.70;;;;;;;18.48;76.22;98682.00;5053436;28;20181;-90
2022/05/18 02:16:25;;;;;;;6.17;5.37;;;;;;;18.95;76.91;98761.50;5062268;28;20173;-92
2022/05/18 02:18:50;;;;;;;6.57;5.57;;;;;;;16.17;76.52;98284.84;5061659;28;20204;-92
2022/05/18 02:21:16;;;;;;;7.10;5.97;;;;;;;16.57;77.36;98388.03;5034975;28;20242;-91
2022/05/18 02:23:42;;;;;;;8.47;5.97;;;;;;;19.53;78.31;98910.41;5066356;28;20185;-91
2022/05/18 02:26:12;;;;;;;7.67;5.90;;;;;;;15.73;77.91;98252.34;5067743;28;20170;-91
2022/05/18 02:28:38;;;;;;;8.63;6.27;;;;;;;18.25;78.04;98669.13;5060868;28;20169;-91
2022/05/18 02:31:04;;;;;;;7.87;5.90;;;;;;;17.18;77.57;98492.22;5031948;28;20190;-91
2022/05/18 02:33:30;;;;;;;9.40;5.90;;;;;;;18.26;78.01;98678.53;5025201;28;20175;-93
2022/05/18 02:35:55;;;;;;;7.93;5.87;;;;;;;15.25;77.96;98194.22;5023627;28;20178;-92
2022/05/18 02:38:21;;;;;;;8.60;6.50;;;;;;;16.00;78.83;98314.56;5038914;28;20660;-92
2022/05/18 02:40:46;;;;;;;7.83;6.17;;;;;;;15.83;79.35;98294.06;5030847;28;20170;-91
2022/05/18 02:43:12;;;;;;;7.77;6.07;;;;;;;19.26;79.96;98896.66;5043641;28;20214;-92
2022/05/18 02:45:37;;;;;;;8.77;5.70;;;;;;;15.94;78.83;98318.78;5039741;28;20692;-91
2022/05/18 02:48:03;;;;;;;8.13;6.03;;;;;;;16.13;79.38;98388.66;5038669;28;20174;-91
2022/05/18 02:50:28;;;;;;;7.60;5.43;;;;;;;15.61;79.22;98282.88;5031057;28;20252;-91
2022/05/18 02:52:54;;;;;;;8.73;6.03;;;;;;;15.54;80.10;98270.94;5036283;28;20166;-92
2022/05/18 02:58:04;;;;;;;6.77;5.83;;;;;;;17.18;79.30;98573.19;5036921;28;20170;-92
2022/05/18 03:00:29;;;;;;;8.33;4.90;;;;;;;15.95;78.45;98370.72;5017970;28;20178;-92
2022/05/18 03:02:55;;;;;;;8.43;6.03;;;;;;;18.58;79.65;98813.59;5020261;28;20189;-92
2022/05/18 03:05:22;;;;;;;7.13;5.50;;;;;;;19.11;79.83;98912.03;5025074;28;20250;-92
2022/05/18 03:07:47;;;;;;;7.60;6.20;;;;;;;18.68;80.48;98840.94;5026989;28;20286;-90
2022/05/18 03:10:18;;;;;;;10.87;6.20;;;;;;;18.45;79.93;98816.94;5040270;28;20221;-91
2022/05/18 03:12:44;;;;;;;7.13;5.37;;;;;;;19.09;80.46;98931.69;5032790;28;20257;-91
2022/05/18 03:15:11;;;;;;;7.47;6.30;;;;;;;19.10;80.24;98935.13;5030744;28;20642;-92
2022/05/18 03:17:36;;;;;;;7.13;6.40;;;;;;;17.97;80.34;98780.03;5019182;28;20190;-91
2022/05/18 03:20:02;;;;;;;8.43;6.17;;;;;;;17.94;80.68;98774.03;5034500;28;20177;-91
2022/05/18 03:25:12;;;;;;;7.20;5.57;;;;;;;19.01;81.05;98953.06;5056096;28;20176;-91
2022/05/18 03:27:42;;;;;;;7.47;6.63;;;;;;;18.71;81.26;98905.06;5037619;28;20170;-92
2022/05/18 03:30:10;;;;;;;9.90;6.53;;;;;;;18.04;81.38;98791.19;5019929;28;20201;-91
2022/05/18 03:32:37;;;;;;;9.30;6.07;;;;;;;17.16;82.42;98662.72;5018515;28;20198;-91
2022/05/18 03:35:03;;;;;;;8.00;6.70;;;;;;;17.43;82.30;98702.94;5018012;28;20653;-92
2022/05/18 03:37:29;;;;;;;7.50;6.13;;;;;;;18.80;83.10;98956.41;5017652;28;20178;-94
2022/05/18 03:39:54;;;;;;;8.47;6.03;;;;;;;16.69;82.56;98613.84;5017953;28;20256;-92
2022/05/18 03:42:19;;;;;;;9.83;6.30;;;;;;;17.84;82.69;98803.03;5017017;28;20273;-92
2022/05/18 03:44:45;;;;;;;8.20;6.07;;;;;;;17.45;82.62;98737.06;5019124;28;20261;-93
2022/05/18 03:47:10;;;;;;;7.17;6.10;;;;;;;15.23;82.62;98345.50;5018020;28;20186;-93
2022/05/18 03:49:36;;;;;;;9.37;6.87;;;;;;;16.75;83.06;98618.16;5028308;28;20208;-92
2022/05/18 03:52:02;;;;;;;9.93;6.83;;;;;;;17.00;82.91;98641.31;5037432;28;20177;-91
2022/05/18 03:54:27;;;;;;;10.07;6.50;;;;;;;17.89;82.41;98802.19;5055623;28;20162;-92
2022/05/18 03:56:53;;;;;;;10.13;6.77;;;;;;;15.15;81.59;98298.69;5037330;28;20180;-92
2022/05/18 03:59:18;;;;;;;8.57;6.10;;;;;;;18.72;82.72;98938.44;5028120;28;20259;-92
2022/05/18 04:01:43;;;;;;;11.23;7.03;;;;;;;18.99;82.25;98963.31;5033961;28;20174;-91
2022/05/18 04:04:09;;;;;;;8.50;5.60;;;;;;;18.38;81.25;98874.16;5017962;28;20162;-92
2022/05/18 04:06:35;;;;;;;9.43;5.87;;;;;;;16.20;80.06;98471.28;5017521;28;20162;-92
2022/05/18 04:09:01;;;;;;;10.70;6.83;;;;;;;18.98;80.44;98951.31;5021686;28;20223;-91
2022/05/18 04:11:26;;;;;;;7.00;5.33;;;;;;;15.94;78.82;98438.75;5017684;28;20755;-92
2022/05/18 04:13:52;;;;;;;9.03;5.50;;;;;;;17.18;78.67;98642.25;4997067;28;20182;-92
2022/05/18 04:16:18;;;;;;;7.63;5.50;;;;;;;17.44;77.58;98666.28;4996792;28;20324;-92
2022/05/18 04:18:43;;;;;;;6.97;4.80;;;;;;;17.30;76.68;98635.53;5011604;28;20222;-92
2022/05/18 04:21:09;;;;;;;8.30;5.00;;;;;;;18.33;75.83;98815.19;5034446;28;20223;-91
2022/05/18 04:23:39;;;;;;;6.70;4.70;;;;;;;19.47;76.18;98984.84;5020551;28;20586;-90
2022/05/18 04:26:05;;;;;;;7.60;4.97;;;;;;;19.26;76.12;98953.13;5039231;28;20165;-91
2022/05/18 04:28:32;;;;;;;11.37;4.90;;;;;;;19.60;75.09;98971.16;5047718;28;20227;-91
2022/05/18 04:31:01;;;;;;;7.77;5.13;;;;;;;18.30;75.22;98761.38;5059855;28;20193;-92
2022/05/18 04:33:26;;;;;;;7.20;5.03;;;;;;;16.16;75.56;98410.81;5056199;28;20267;-92
2022/05/18 04:35:52;;;;;;;7.27;4.47;;;;;;;17.55;74.60;98628.84;5045445;28;20173;-91
2022/05/18 04:38:20;;;;;;;13.40;5.90;;;;;;;15.56;74.81;98284.56;5026229;28;20178;-91
2022/05/18 04:40:46;;;;;;;9.33;5.40;;;;;;;15.81;75.04;98336.59;5035720;28;20179;-92
2022/05/18 04:43:12;;;;;;;10.23;5.50;;;;;;;18.34;75.30;98746.88;5037160;28;20178;-91
2022/05/18 04:45:44;;;;;;;7.37;5.20;;;;;;;18.23;74.98;98760.50;5025317;28;20183;-92
2022/05/18 04:48:12;;;;;;;5.93;5.30;;;;;;;18.42;74.83;98783.63;5038932;28;20240;-92
2022/05/18 04:50:37;;;;;;;7.63;5.10;;;;;;;16.40;74.80;98408.38;5040179;28;20208;-91
2022/05/18 04:53:11;;;;;;;7.20;5.00;;;;;;;16.09;74.08;98368.22;5010809;28;20237;-92
2022/05/18 04:55:37;;;;;;;7.80;5.33;;;;;;;19.92;74.16;98993.44;5035233;28;20194;-87
2022/05/18 04:58:03;;;;;;;7.03;5.30;;;;;;;18.03;73.63;98654.56;5018726;28;20198;-90
2022/05/18 05:00:42;;;;;;;7.47;5.30;;;;;;;19.32;73.32;98865.84;5020666;28;20190;-92
2022/05/18 05:03:08;;;;;;;6.87;4.90;;;;;;;19.65;72.67;98877.84;5022447;28;20198;-91
2022/05/18 05:05:34;;;;;;;8.73;5.70;;;;;;;20.30;72.31;98998.56;5019712;28;20189;-93
2022/05/18 05:07:59;;;;;;;8.87;5.20;;;;;;;18.11;71.81;98613.59;5020004;28;20313;-89
2022/05/18 05:10:31;;;;;;;6.87;4.87;;;;;;;20.36;72.28;99000.28;5023528;28;20238;-91
2022/05/18 05:12:56;;;;;;;8.33;5.27;;;;;;;16.36;71.04;98314.72;5028035;28;20190;-89
2022/05/18 05:15:22;;;;;;;6.87;4.63;;;;;;;18.01;70.68;98571.75;5029367;28;20197;-87
2022/05/18 05:17:49;;;;;;;9.23;6.23;;;;;;;19.28;69.42;98760.63;5055032;28;20189;-92
2022/05/18 05:20:15;;;;;;;9.73;5.53;;;;;;;19.87;69.85;98879.53;5012522;28;20194;-92
2022/05/18 05:22:41;;;;;;;7.50;5.60;;;;;;;20.78;69.96;99020.75;5026395;28;20202;-92
2022/05/18 05:25:10;;;;;;;7.13;5.57;;;;;;;17.28;69.49;98411.25;5012636;28;20182;-94
2022/05/18 05:27:42;;;;;;;5.83;4.70;;;;;;;17.28;69.03;98378.00;5021540;28;20185;-93
2022/05/18 05:30:09;;;;;;;7.70;4.60;;;;;;;17.84;67.68;98465.03;5023464;28;20264;-91
2022/05/18 05:32:35;;;;;;;11.93;6.10;;;;;;;17.58;67.47;98401.03;5023758;28;20175;-89
2022/05/18 05:35:01;;;;;;;8.20;5.47;;;;;;;19.10;67.17;98652.88;5020991;28;20187;-91
2022/05/18 05:37:27;;;;;;;7.97;5.73;;;;;;;17.73;67.17;98412.97;5012465;28;20183;-91
2022/05/18 05:39:54;;;;;;;5.73;4.37;;;;;;;21.44;66.83;99024.78;5025388;28;20202;-90
2022/05/18 05:42:24;;;;;;;7.30;4.50;;;;;;;17.35;65.94;98290.16;5033086;28;20193;-92
2022/05/18 05:44:49;;;;;;;7.90;5.80;;;;;;;20.64;64.66;98800.44;5012088;28;20685;-93
2022/05/18 05:47:15;;;;;;;7.03;5.20;;;;;;;20.68;63.26;98750.69;5019960;28;20175;-93
2022/05/18 05:49:42;;;;;;;8.37;5.20;;;;;;;22.02;63.78;99030.41;5001026;28;20236;-92
2022/05/18 05:52:08;;;;;;;11.43;5.87;;;;;;;21.75;62.82;98961.84;5017610;28;20213;-92
2022/05/18 05:54:34;;;;;;;17.10;6.57;;;;;;;20.31;62.94;98750.03;5004559;28;20686;-92
2022/05/18 05:57:03;;;;;;;7.97;5.53;;;;;;;21.58;63.91;98986.03;5003645;28;20186;-92
2022/05/18 05:59:29;;;;;;;11.40;5.30;;;;;;;21.41;62.75;98951.81;5022918;28;20194;-92
2022/05/18 06:01:58;;;;;;;10.00;5.60;;;;;;;21.48;64.01;98982.66;5021580;28;20190;-93
2022/05/18 06:04:24;;;;;;;9.73;5.80;;;;;;;21.92;63.95;99048.56;5029610;28;20185;-91
2022/05/18 06:06:49;;;;;;;10.67;6.27;;;;;;;21.70;62.63;98949.88;5039704;28;20189;-93
2022/05/18 06:09:14;;;;;;;7.93;6.17;;;;;;;21.53;63.60;98968.06;5026984;28;20186;-92
2022/05/18 06:11:40;;;;;;;10.73;5.80;;;;;;;22.30;61.66;99049.09;5022233;28;20210;-87
2022/05/18 06:14:05;;;;;;;10.23;6.40;;;;;;;22.14;59.32;98918.59;5021817;28;21232;-90
2022/05/18 06:16:31;;;;;;;8.80;6.37;;;;;;;23.24;58.71;99024.84;5050664;28;20200;-93
2022/05/18 06:18:56;;;;;;;7.47;5.23;;;;;;;22.27;57.65;98856.53;5040590;28;20192;-90
2022/05/18 06:21:22;;;;;;;8.87;5.87;;;;;;;22.80;58.96;99023.66;5028926;28;20249;-92
2022/05/18 06:23:47;;;;;;;10.67;5.77;;;;;;;22.91;57.63;99000.28;5040325;28;20193;-91
2022/05/18 06:26:13;;;;;;;12.27;5.80;;;;;;;23.02;56.96;98987.25;5061225;28;20182;-89
2022/05/18 06:28:40;;;;;;;16.40;6.43;;;;;;;23.05;57.18;99036.25;5044812;28;20200;-89
2022/05/18 06:31:06;;;;;;;15.67;6.00;;;;;;;22.15;57.75;98948.63;5024068;28;20206;-90
2022/05/18 06:33:32;;;;;;;10.97;5.47;;;;;;;22.46;56.58;98902.75;5039197;28;20282;-93
2022/05/18 06:35:58;;;;;;;13.77;5.23;;;;;;;22.62;56.14;98937.81;5023598;28;20761;-90
2022/05/18 06:38:23;;;;;;;7.73;5.20;;;;;;;22.51;57.49;98963.75;5018605;28;20221;-90
2022/05/18 06:43:33;;;;;;;15.63;5.93;;;;;;;22.98;57.42;99017.41;5019372;28;20274;-92
2022/05/18 06:46:01;;;;;;;12.73;5.80;;;;;;;21.85;56.50;98850.97;5021842;28;20210;-88
2022/05/18 06:48:27;;;;;;;8.13;5.03;;;;;;;23.04;56.90;99057.81;5028285;28;20194;-91
2022/05/18 06:50:53;;;;;;;9.43;5.67;;;;;;;20.58;57.25;98647.00;5042948;28;20202;-88
2022/05/18 06:53:18;;;;;;;11.17;6.27;;;;;;;20.90;58.47;98726.50;5071775;23;21387;-87
2022/05/18 06:55:44;;;;;;;11.63;5.87;;;;;;;23.29;57.61;99059.22;5068784;28;20217;-93
2022/05/18 06:58:09;;;;;;;16.27;7.00;;;;;;;22.53;56.52;98876.84;5033956;28;20190;-91
2022/05/18 07:00:35;;;;;;;13.03;6.70;;;;;;;20.36;56.63;98512.63;5045182;28;20188;-92
2022/05/18 07:03:04;;;;;;;16.07;6.80;;;;;;;22.78;55.72;98870.53;5045892;28;20193;-94
2022/05/18 07:05:31;;;;;;;7.57;4.83;;;;;;;22.29;55.08;98755.94;5046590;28;20211;-92
2022/05/18 07:07:57;;;;;;;9.90;6.30;;;;;;;22.13;56.39;98873.03;5044680;28;20201;-92
2022/05/18 07:10:22;;;;;;;11.57;7.00;;;;;;;23.56;56.64;99074.41;5044116;28;20225;-90
2022/05/18 07:12:48;;;;;;;7.60;6.17;;;;;;;23.68;56.86;99063.03;5056643;28;20176;-93
2022/05/18 07:15:14;;;;;;;7.60;6.00;;;;;;;23.56;55.62;99071.81;5063339;28;20216;-92
2022/05/18 07:17:41;;;;;;;8.43;6.20;;;;;;;22.21;56.44;98864.34;5067258;28;20184;-94
2022/05/18 07:20:07;;;;;;;12.17;6.73;;;;;;;22.84;56.22;98913.47;5053544;28;20723;-92
2022/05/18 07:22:32;;;;;;;13.87;6.40;;;;;;;23.22;56.07;99003.31;5043971;28;20177;-91
2022/05/18 07:24:58;;;;;;;11.83;6.43;;;;;;;22.54;57.18;98960.28;5044013;28;20645;-90
2022/05/18 07:27:23;;;;;;;9.90;6.10;;;;;;;21.98;55.92;98801.88;5043099;28;20271;-93
2022/05/18 07:29:49;;;;;;;11.70;6.97;;;;;;;23.96;55.92;99080.69;5042690;28;20703;-92
2022/05/18 07:32:14;;;;;;;9.23;6.53;;;;;;;23.30;55.47;98944.66;5042033;28;20692;-91
2022/05/18 07:34:42;;;;;;;10.40;6.73;;;;;;;23.54;56.93;99039.94;5047213;28;20243;-92
2022/05/18 07:37:08;;;;;;;9.57;7.30;;;;;;;23.75;57.56;99085.31;5041326;28;20202;-92
2022/05/18 07:39:34;;;;;;;11.97;7.07;;;;;;;23.54;57.04;99055.44;5040742;28;20190;-90
2022/05/18 07:42:00;;;;;;;11.00;6.50;;;;;;;23.71;57.86;99081.91;5040910;28;20184;-92
2022/05/18 07:44:27;;;;;;;9.27;6.20;;;;;;;22.24;57.63;98895.25;5041896;28;20193;-92
2022/05/18 07:46:53;;;;;;;13.53;6.20;;;;;;;22.05;58.14;98940.16;5042044;28;20196;-90
2022/05/18 07:49:19;;;;;;;11.60;6.90;;;;;;;23.08;58.28;99114.56;5041773;28;20185;-93
2022/05/18 07:51:44;;;;;;;10.80;6.40;;;;;;;22.52;57.83;98990.41;5030764;28;20218;-92
2022/05/18 07:54:11;;;;;;;11.13;7.30;;;;;;;22.43;57.62;98934.59;5036287;28;20233;-90
2022/05/18 07:56:38;;;;;;;11.47;6.60;;;;;;;21.42;57.72;98768.97;5043640;28;20181;-92
2022/05/18 07:59:05;;;;;;;10.40;7.13;;;;;;;22.50;57.57;98946.53;5041110;28;20181;-91
2022/05/18 08:01:30;;;;;;;13.80;7.37;;;;;;;22.72;57.56;98953.19;5039303;28;20185;-89
2022/05/18 08:03:56;;;;;;;10.70;6.10;;;;;;;22.71;61.37;99121.84;5041862;28;20197;-91
2022/05/18 08:06:21;;;;;;;8.60;7.50;;;;;;;20.22;60.78;98663.53;5045974;28;20185;-91
2022/05/18 08:08:47;;;;;;;8.03;6.23;;;;;;;21.89;59.24;98915.41;5064312;28;20661;-92
2022/05/18 08:16:41;;;;;;;12.07;5.57;;;;;;;22.06;62.43;99049.28;5033531;28;20239;-91
2022/05/18 08:19:10;;;;;;;10.13;7.07;;;;;;;21.87;60.42;98932.56;5025579;28;20631;-90
2022/05/18 08:21:37;;;;;;;7.80;6.00;;;;;;;23.38;59.15;99142.66;5026333;28;20259;-92
2022/05/18 08:24:04;;;;;;;8.00;6.03;;;;;;;22.69;58.84;99055.63;5024625;28;20709;-90
2022/05/18 08:26:31;;;;;;;10.53;7.43;;;;;;;22.95;60.74;99125.03;5022929;28;20599;-89
2022/05/18 08:28:57;;;;;;;11.20;6.30;;;;;;;22.42;64.46;99156.44;5031017;28;20177;-91
2022/05/18 08:31:23;;;;;;;7.47;6.33;;;;;;;21.93;64.63;99076.00;5020064;28;20228;-92
2022/05/18 08:33:49;;;;;;;9.87;7.13;;;;;;;22.45;66.11;99151.28;5025251;28;20226;-90
2022/05/18 08:36:16;;;;;;;10.50;6.83;;;;;;;22.27;68.72;99175.50;5035286;28;20186;-92
2022/05/18 08:38:42;;;;;;;11.20;7.57;;;;;;;20.39;70.51;98898.28;5025920;28;20240;-90
2022/05/18 08:41:12;;;;;;;11.10;7.07;;;;;;;20.84;76.30;99097.06;5038094;28;20185;-91
2022/05/18 08:43:41;;;;;;;10.63;8.37;;;;;;;20.31;79.38;99054.28;5040575;28;20192;-89
2022/05/18 08:46:17;;;;;;;13.30;9.00;;;;;;;20.67;83.40;99168.28;5037174;28;20838;-87
2022/05/18 08:49:01;;;;;;;12.10;8.60;;;;;;;20.79;84.60;99171.72;5040690;28;20181;-91
2022/05/18 08:52:08;;;;;;;13.57;9.37;;;;;;;20.66;88.31;99164.00;5019862;28;20707;-88
2022/05/18 08:55:05;;;;;;;11.93;8.50;;;;;;;20.17;93.19;99179.34;4980213;28;20699;-92
2022/05/18 08:57:38;;;;;;;10.73;7.70;;;;;;;19.17;98.28;99076.25;4988763;28;20198;-89
2022/05/18 09:00:13;;;;;;;11.77;8.17;;;;;;;17.50;98.46;98838.63;4980470;28;20291;-91
2022/05/18 09:02:41;;;;;;;13.23;8.40;;;;;;;19.17;100.00;99127.59;4996456;28;20214;-86
2022/05/18 09:05:12;;;;;;;15.03;9.53;;;;;;;19.61;100.00;99157.78;5010513;28;20192;-87
2022/05/18 09:07:45;;;;;;;13.67;9.70;;;;;;;19.54;100.00;99182.59;4996434;28;20676;-92
2022/05/18 09:10:35;;;;;;;14.57;10.10;;;;;;;19.35;100.00;99161.06;4987675;28;20214;-91
2022/05/18 09:13:02;;;;;;;13.77;9.60;;;;;;;18.96;100.00;99029.13;4976092;28;20246;-89
2022/05/18 09:15:49;;;;;;;15.33;11.10;;;;;;;20.00;100.00;99181.03;4967960;28;20660;-88
2022/05/18 09:18:37;;;;;;;15.33;11.40;;;;;;;19.95;100.00;99193.00;4972426;28;20267;-93
2022/05/18 09:21:27;;;;;;;17.13;12.17;;;;;;;19.40;100.00;99110.63;4936948;29;20665;-89
2022/05/18 09:24:09;;;;;;;17.93;11.57;;;;;;;20.04;100.00;99185.31;4953601;29;20740;-88
2022/05/18 09:26:51;;;;;;;17.90;11.20;;;;;;;19.57;100.00;99081.59;4954363;28;21005;-88
2022/05/18 09:29:16;;;;;;;18.97;10.90;;;;;;;20.21;98.58;99186.22;4939147;29;20607;-88
2022/05/18 09:31:58;;;;;;;16.63;11.73;;;;;;;20.31;99.57;99194.81;4956765;29;20312;-88
2022/05/18 09:34:52;;;;;;;16.07;11.03;;;;;;;19.85;100.00;99181.84;4959216;28;20271;-88
2022/05/18 09:37:29;;;;;;;10.43;6.70;;;;;;;19.55;100.00;99188.59;4937242;29;20264;-89
2022/05/18 09:40:16;;;;;;;9.80;6.87;;;;;;;19.50;100.00;99182.56;4936331;29;20279;-89
2022/05/18 09:43:05;;;;;;;11.00;7.20;;;;;;;19.71;100.00;99177.50;4936420;29;20197;-87
2022/05/18 09:45:34;;;;;;;8.27;5.97;;;;;;;16.39;100.00;98646.81;4929595;29;20353;-88
2022/05/18 09:48:09;;;;;;;9.57;6.60;;;;;;;18.00;100.00;98892.75;4925456;29;20308;-89
2022/05/18 09:50:37;;;;;;;10.03;6.53;;;;;;;18.27;100.00;98936.47;4918717;29;20213;-87
2022/05/18 09:53:04;;;;;;;8.90;5.87;;;;;;;19.91;97.73;99179.28;4907917;29;20229;-88
2022/05/18 09:55:29;;;;;;;15.80;9.37;;;;;;;18.19;96.17;98889.44;4936324;29;20672;-88
2022/05/18 09:58:02;;;;;;;14.50;8.73;;;;;;;20.53;93.06;99182.00;4944783;29;20238;-89
2022/05/18 10:00:31;;;;;;;7.03;4.57;;;;;;;18.42;90.25;98828.06;4955554;29;20231;-89
2022/05/18 10:08:45;;;;;;;9.73;4.63;;;;;;;20.03;85.72;99055.97;4956572;29;20574;-89
2022/05/18 10:11:23;;;;;;;6.40;5.03;;;;;;;20.34;86.06;99085.13;4954322;29;20212;-86
2022/05/18 10:14:07;;;;;;;8.73;5.53;;;;;;;20.32;83.68;99058.56;4991278;28;20208;-89
2022/05/18 10:16:41;;;;;;;7.10;5.13;;;;;;;21.39;82.43;99190.50;5022916;28;20193;-87
2022/05/18 10:19:43;;;;;;;6.80;4.50;;;;;;;21.35;79.93;99145.84;5036620;28;20192;-90
2022/05/18 10:22:12;;;;;;;6.73;4.30;;;;;;;19.95;78.50;98974.59;4938643;29;20272;-88
2022/05/18 10:25:09;;;;;;;6.30;4.77;;;;;;;19.76;79.30;98934.34;4919903;28;20188;-88
2022/05/18 10:27:46;;;;;;;8.27;5.03;;;;;;;19.47;77.33;98859.91;4952863;29;20280;-88
2022/05/18 10:30:19;;;;;;;6.17;4.47;;;;;;;21.41;75.28;99184.47;4952916;29;20215;-88
2022/05/18 10:33:21;;;;;;;6.37;4.73;;;;;;;21.27;73.29;99083.22;4958613;28;20184;-88
2022/05/18 10:35:51;;;;;;;6.90;4.87;;;;;;;22.03;70.67;99184.22;4920311;29;20197;-90
2022/05/18 10:38:29;;;;;;;5.73;4.50;;;;;;;20.94;70.88;99004.38;4918005;29;20294;-89
2022/05/18 10:41:11;;;;;;;5.67;4.30;;;;;;;21.07;69.72;99049.84;4902982;29;20650;-90
2022/05/18 10:43:39;;;;;;;8.53;5.17;;;;;;;21.37;68.91;99073.75;4900574;29;20200;-89
2022/05/18 10:46:41;;;;;;;7.03;5.03;;;;;;;22.09;67.99;99171.28;4933962;29;20759;-89
2022/05/18 10:49:32;;;;;;;5.57;4.30;;;;;;;22.33;68.39;99190.94;4814950;29;20290;-89
2022/05/18 10:52:28;;;;;;;6.57;4.40;;;;;;;21.76;68.65;99117.31;4823704;29;20205;-91
2022/05/18 10:54:59;;;;;;;6.90;4.53;;;;;;;20.39;68.59;98876.84;4840968;29;20293;-89
2022/05/18 10:57:35;;;;;;;5.90;4.77;;;;;;;22.63;66.76;99184.69;4826253;29;20206;-88
2022/05/18 11:00:14;;;;;;;6.20;4.70;;;;;;;21.68;67.42;99090.75;4832156;29;20210;-85
2022/05/18 11:02:58;;;;;;;4.90;4.30;;;;;;;22.27;66.87;99197.00;4845008;29;20184;-90
2022/05/18 11:05:37;;;;;;;6.23;4.27;;;;;;;21.56;65.97;99058.16;4858119;29;20216;-89
2022/05/18 11:08:06;;;;;;;4.97;4.20;;;;;;;21.41;64.85;99035.09;4843109;29;20202;-91
2022/05/18 11:10:41;;;;;;;7.03;4.90;;;;;;;21.08;66.47;98994.06;4856824;29;20704;-88
2022/05/18 11:13:27;;;;;;;7.47;4.90;;;;;;;22.16;66.25;99167.84;4931272;29;20741;-88
2022/05/18 11:16:04;;;;;;;6.03;4.53;;;;;;;21.09;65.86;98955.47;4860212;29;20224;-88
2022/05/18 11:18:47;;;;;;;7.50;4.90;;;;;;;22.43;66.49;99191.72;4859116;29;20199;-89
2022/05/18 11:21:50;;;;;;;6.27;4.90;;;;;;;22.75;65.56;99195.78;4864882;29;20191;-87
2022/05/18 11:25:09;;;;;;;6.40;5.23;;;;;;;22.56;63.85;99137.41;4880551;29;20225;-88
2022/05/18 11:27:56;;;;;;;6.83;5.03;;;;;;;22.95;64.60;99197.34;4937397;29;20208;-88
2022/05/18 11:30:30;;;;;;;6.87;5.03;;;;;;;22.72;63.85;99184.63;4937777;29;20212;-88
2022/05/18 11:33:30;;;;;;;6.80;5.50;;;;;;;22.74;64.58;99188.06;4935932;29;20244;-88
2022/05/18 11:35:56;;;;;;;7.60;5.33;;;;;;;22.70;64.60;99184.66;4934324;29;20185;-88
2022/05/18 11:38:34;;;;;;;7.40;4.90;;;;;;;22.60;64.21;99187.28;4934930;29;20194;-88
2022/05/18 11:41:08;;;;;;;8.60;5.47;;;;;;;22.59;63.73;99190.72;4933504;29;20197;-88
2022/05/18 11:43:36;;;;;;;7.70;5.20;;;;;;;22.92;62.72;99193.91;4935089;29;20248;-88
2022/05/18 11:46:10;;;;;;;6.77;4.70;;;;;;;22.77;63.11;99195.78;4933718;29;20252;-88
2022/05/18 11:48:43;;;;;;;6.93;5.50;;;;;;;21.50;61.19;98870.19;4932466;29;20184;-88
2022/05/18 11:51:17;;;;;;;11.03;5.80;;;;;;;23.46;61.10;99196.81;4930906;29;20701;-88
2022/05/18 11:53:52;;;;;;;11.77;5.97;;;;;;;23.37;60.31;99171.06;4978641;28;20715;-88
2022/05/18 11:56:32;;;;;;;8.37;6.07;;;;;;;23.51;60.85;99215.75;4974213;28;20206;-87
2022/05/18 11:59:44;;;;;;;8.07;5.80;;;;;;;22.72;61.45;99144.19;5009331;28;20186;-88
2022/05/18 12:02:34;;;;;;;7.07;5.90;;;;;;;23.37;60.84;99225.34;5012302;28;20166;-89
2022/05/18 12:05:37;;;;;;;12.80;6.30;;;;;;;23.73;59.85;99229.28;4999838;28;20702;-89
2022/05/18 12:08:34;;;;;;;7.53;6.33;;;;;;;23.71;59.91;99239.63;5014634;28;20189;-89
2022/05/18 12:11:02;;;;;;;8.63;5.90;;;;;;;23.72;60.32;99249.09;5030310;28;20248;-88